createdAt,value
2019-03-16T00:02:39.463Z,0.93
2019-03-16T00:05:26.729Z,1.00
2019-03-16T00:08:13.904Z,1.00
2019-03-16T00:11:01.780Z,0.83
2019-03-16T00:13:48.899Z,1.27
2019-03-16T00:16:35.711Z,0.80
2019-03-16T00:19:22.622Z,1.33
2019-03-16T00:22:11.269Z,1.10
2019-03-16T00:28:03.858Z,1.23
2019-03-16T00:30:51.091Z,0.83
2019-03-16T00:33:39.740Z,1.00
2019-03-16T00:36:26.011Z,1.30
2019-03-16T00:39:13.054Z,1.03
2019-03-16T00:41:59.852Z,0.90
2019-03-16T00:44:46.669Z,1.43
2019-03-16T00:47:33.686Z,1.00
2019-03-16T00:50:20.467Z,1.45
2019-03-16T00:59:19.064Z,1.17
2019-03-16T01:02:06.624Z,1.10
2019-03-16T01:04:53.817Z,1.10
2019-03-16T01:07:41.356Z,1.27
2019-03-16T01:10:28.472Z,0.73
2019-03-16T01:13:16.291Z,1.27
2019-03-16T01:16:04.001Z,1.20
2019-03-16T01:18:52.261Z,1.07
2019-03-16T01:21:39.415Z,1.03
2019-03-16T01:27:33.636Z,1.10
2019-03-16T01:30:21.599Z,1.50
2019-03-16T01:33:08.596Z,0.90
2019-03-16T01:42:09.264Z,1.33
2019-03-16T01:44:56.607Z,0.93
2019-03-16T01:47:44.242Z,1.33
2019-03-16T01:50:31.587Z,0.73
2019-03-16T01:56:39.164Z,1.10
2019-03-16T01:59:26.575Z,1.40
2019-03-16T02:02:13.801Z,0.90
2019-03-16T02:05:01.129Z,1.00
2019-03-16T02:07:49.138Z,0.90
2019-03-16T02:13:42.114Z,0.97
2019-03-16T02:16:29.035Z,0.83
2019-03-16T02:19:17.172Z,1.00
2019-03-16T02:22:04.310Z,1.10
2019-03-16T02:24:51.607Z,0.93
2019-03-16T02:27:38.538Z,0.87
2019-03-16T02:30:26.762Z,1.53
2019-03-16T02:33:14.001Z,1.30
2019-03-16T02:36:00.930Z,1.33
2019-03-16T02:38:51.777Z,1.27
2019-03-16T02:41:38.385Z,0.90
2019-03-16T02:44:25.620Z,0.80
2019-03-16T02:47:12.656Z,0.87
2019-03-16T02:50:00.544Z,0.97
2019-03-16T02:52:50.083Z,1.10
2019-03-16T02:55:35.787Z,1.07
2019-03-16T02:58:23.435Z,0.73
2019-03-16T03:01:10.662Z,0.93
2019-03-16T03:07:03.876Z,0.53
2019-03-16T03:09:50.881Z,1.27
2019-03-16T03:12:38.688Z,1.40
2019-03-16T03:15:25.923Z,0.93
2019-03-16T03:18:13.372Z,1.30
2019-03-16T03:21:00.667Z,1.20
2019-03-16T03:23:48.593Z,1.10
2019-03-16T03:26:35.810Z,1.33
2019-03-16T03:32:29.338Z,1.27
2019-03-16T03:35:16.459Z,0.80
2019-03-16T03:38:17.722Z,0.90
2019-03-16T03:41:04.539Z,1.03
2019-03-16T03:46:57.423Z,1.10
2019-03-16T03:52:51.990Z,1.00
2019-03-16T03:55:39.032Z,1.58
2019-03-16T04:07:47.802Z,1.20
2019-03-16T04:10:34.593Z,1.40
2019-03-16T04:13:28.571Z,1.20
2019-03-16T04:16:29.420Z,1.50
2019-03-16T04:47:18.820Z,1.10
2019-03-16T04:59:45.318Z,1.97
2019-03-16T05:02:32.052Z,1.60
2019-03-16T05:05:18.761Z,1.20
2019-03-16T05:08:06.034Z,1.87
2019-03-16T05:10:53.267Z,1.10
2019-03-16T05:51:20.788Z,1.60
2019-03-16T05:54:07.922Z,1.67
2019-03-16T05:56:54.655Z,1.10
2019-03-16T05:59:41.951Z,1.73
2019-03-16T06:05:54.268Z,1.47
2019-03-16T06:08:41.451Z,1.60
2019-03-16T06:11:28.890Z,1.50
2019-03-16T06:23:43.162Z,1.23
2019-03-16T06:29:50.785Z,1.70
2019-03-16T06:35:58.458Z,1.27
2019-03-16T06:38:48.436Z,1.50
2019-03-16T07:16:23.748Z,1.50
2019-03-16T07:25:23.227Z,1.60
2019-03-16T07:28:10.474Z,1.33
2019-03-16T07:40:18.911Z,1.50
2019-03-16T07:43:05.731Z,1.20
2019-03-16T07:48:58.688Z,1.30
2019-03-16T07:58:12.284Z,1.10
2019-03-16T08:00:59.648Z,0.90
2019-03-16T08:13:22.034Z,1.30
2019-03-16T08:28:48.061Z,1.90
2019-03-16T08:31:34.919Z,1.30
2019-03-16T08:34:22.498Z,1.58
2019-03-16T08:40:16.276Z,1.95
2019-03-16T08:43:03.403Z,1.70
2019-03-16T08:55:16.518Z,2.13
2019-03-16T08:58:06.342Z,1.90
2019-03-16T09:00:50.583Z,1.80
2019-03-16T09:06:43.198Z,1.77
2019-03-16T09:09:30.357Z,1.60
2019-03-16T09:31:08.427Z,1.40
2019-03-16T09:33:56.513Z,1.50
2019-03-16T09:49:07.447Z,1.50
2019-03-16T10:07:40.660Z,1.20
2019-03-16T10:13:40.371Z,1.20
2019-03-16T10:16:27.681Z,1.13
2019-03-16T10:19:14.845Z,1.40
2019-03-16T10:22:03.277Z,1.10
2019-03-16T10:24:57.544Z,1.07
2019-03-16T10:27:45.575Z,1.67
2019-03-16T10:30:32.620Z,1.40
2019-03-16T10:33:19.493Z,1.73
2019-03-16T10:36:06.931Z,2.22
2019-03-16T10:45:06.864Z,1.80
2019-03-16T10:47:53.915Z,2.30
2019-03-16T10:50:41.893Z,3.30
2019-03-16T10:53:29.016Z,3.30
2019-03-16T10:56:16.107Z,2.77
2019-03-16T10:59:02.861Z,2.60
2019-03-16T11:01:50.594Z,2.03
2019-03-16T11:04:38.122Z,2.13
2019-03-16T11:10:32.515Z,2.30
2019-03-16T11:13:26.872Z,2.20
2019-03-16T11:19:19.941Z,2.50
2019-03-16T11:22:07.417Z,2.70
2019-03-16T11:28:10.192Z,3.22
2019-03-16T11:31:05.155Z,3.33
2019-03-16T11:34:06.422Z,3.70
2019-03-16T11:36:54.280Z,5.00
2019-03-16T11:39:49.455Z,5.37
2019-03-16T11:42:38.513Z,4.68
2019-03-16T11:45:26.734Z,4.50
2019-03-16T11:48:14.268Z,3.73
2019-03-16T11:51:05.255Z,3.70
2019-03-16T11:53:53.705Z,3.73
2019-03-16T11:59:46.661Z,4.53
2019-03-16T12:02:34.842Z,6.30
2019-03-16T12:05:28.963Z,5.45
2019-03-16T12:08:22.788Z,4.22
2019-03-16T12:11:10.908Z,3.50
2019-03-16T12:13:59.173Z,2.90
2019-03-16T12:16:46.798Z,2.58
2019-03-16T12:19:48.426Z,3.03
2019-03-16T12:22:37.006Z,2.80
2019-03-16T12:25:38.646Z,3.25
2019-03-16T12:28:26.764Z,3.50
2019-03-16T12:31:14.197Z,3.15
2019-03-16T12:34:04.987Z,2.92
2019-03-16T12:36:53.025Z,2.53
2019-03-16T12:39:41.145Z,3.20
2019-03-16T12:42:29.078Z,2.62
2019-03-16T12:45:20.771Z,3.42
2019-03-16T12:48:06.934Z,3.50
2019-03-16T12:50:56.188Z,3.10
2019-03-16T12:53:57.406Z,3.80
2019-03-16T12:56:44.549Z,3.90
2019-03-16T12:59:31.884Z,4.10
2019-03-16T13:02:19.907Z,4.05
2019-03-16T13:05:07.528Z,3.62
2019-03-16T13:07:54.966Z,4.63
2019-03-16T13:10:42.866Z,4.10
2019-03-16T13:13:30.268Z,4.65
2019-03-16T13:16:31.634Z,3.37
2019-03-16T13:19:19.389Z,3.55
2019-03-16T13:22:07.437Z,3.75
2019-03-16T13:24:54.253Z,2.78
2019-03-16T13:27:48.799Z,2.90
2019-03-16T13:30:36.478Z,2.92
2019-03-16T13:33:25.363Z,3.17
2019-03-16T13:36:11.808Z,4.05
2019-03-16T13:38:59.321Z,3.42
2019-03-16T13:41:47.663Z,4.10
2019-03-16T13:44:35.705Z,3.90
2019-03-16T13:47:23.152Z,3.50
2019-03-16T13:50:13.954Z,4.30
2019-03-16T13:53:01.964Z,3.80
2019-03-16T13:55:48.983Z,3.60
2019-03-16T13:58:36.733Z,4.00
2019-03-16T14:01:24.854Z,4.28
2019-03-16T14:04:12.788Z,5.30
2019-03-16T14:07:00.742Z,5.20
2019-03-16T14:09:48.165Z,4.65
2019-03-16T14:12:36.121Z,4.28
2019-03-16T14:15:23.219Z,4.32
2019-03-16T14:18:11.234Z,4.82
2019-03-16T14:21:06.187Z,3.90
2019-03-16T14:23:54.190Z,4.00
2019-03-16T14:26:42.479Z,3.50
2019-03-16T14:29:28.510Z,4.60
2019-03-16T14:32:16.160Z,5.65
2019-03-16T14:35:06.430Z,4.90
2019-03-16T14:37:53.465Z,4.82
2019-03-16T14:40:40.768Z,4.43
2019-03-16T14:43:28.748Z,4.72
2019-03-16T14:46:16.987Z,5.05
2019-03-16T14:49:03.652Z,4.07
2019-03-16T14:51:50.519Z,4.72
2019-03-16T15:32:00.223Z,0.65
2019-03-16T15:34:48.348Z,0.70
2019-03-16T15:37:39.656Z,0.70
2019-03-16T15:40:27.509Z,0.47
2019-03-16T15:43:16.728Z,0.82
2019-03-16T15:46:03.683Z,0.50
2019-03-16T15:48:50.989Z,2.62
2019-03-16T15:51:38.382Z,1.87
2019-03-16T15:54:25.938Z,2.58
2019-03-16T15:57:18.513Z,5.57
2019-03-16T16:00:03.371Z,3.62
2019-03-16T16:02:50.886Z,2.30
2019-03-16T16:05:38.260Z,1.35
2019-03-16T16:08:25.399Z,1.25
2019-03-16T16:14:19.191Z,1.45
2019-03-16T16:17:06.448Z,1.00
2019-03-16T16:23:00.581Z,0.98
2019-03-16T16:25:48.228Z,0.98
2019-03-16T16:35:28.427Z,0.90
2019-03-16T16:38:22.714Z,0.70
2019-03-16T16:41:09.853Z,0.50
2019-03-16T16:43:56.726Z,0.60
2019-03-16T16:49:51.388Z,0.60
2019-03-16T17:01:58.184Z,0.82
2019-03-16T17:04:45.964Z,0.50
2019-03-16T17:07:33.239Z,0.43
2019-03-16T17:10:20.660Z,0.65
2019-03-16T17:13:14.874Z,0.68
2019-03-16T17:16:02.210Z,0.62
2019-03-16T17:18:49.743Z,0.50
2019-03-16T17:21:50.963Z,0.65
2019-03-16T17:24:45.129Z,0.90
2019-03-16T17:43:04.644Z,0.65
2019-03-16T17:46:06.147Z,0.65
2019-03-16T17:58:31.164Z,0.70
2019-03-16T18:01:18.447Z,0.88
2019-03-16T18:10:33.409Z,0.50
2019-03-16T18:13:20.447Z,0.60
2019-03-16T18:16:08.434Z,0.70
2019-03-16T18:22:15.827Z,0.60
2019-03-16T18:37:28.494Z,0.60
2019-03-16T18:40:15.441Z,0.77
2019-03-16T18:49:15.970Z,0.93
2019-03-16T18:52:02.950Z,0.80
2019-03-16T19:07:17.655Z,0.90
2019-03-16T19:16:31.035Z,1.00
2019-03-16T19:53:25.963Z,1.67
2019-03-16T19:59:34.118Z,1.50
2019-03-16T20:02:21.262Z,1.27
2019-03-16T20:05:08.225Z,1.60
2019-03-16T20:14:09.047Z,1.67
2019-03-16T20:16:56.417Z,1.30
2019-03-16T20:41:41.694Z,2.00
2019-03-16T20:44:29.856Z,2.00
2019-03-16T20:56:36.537Z,2.42
2019-03-16T20:59:23.594Z,2.12
2019-03-16T21:20:48.727Z,2.30
2019-03-16T21:23:35.752Z,2.70
2019-03-16T21:26:22.606Z,2.47
2019-03-16T21:29:09.693Z,3.67
2019-03-16T21:35:04.079Z,2.93
2019-03-16T21:37:51.136Z,3.62
2019-03-16T21:40:38.074Z,3.40
2019-03-16T21:43:25.320Z,3.20
2019-03-16T21:46:15.808Z,3.70
2019-03-16T21:49:02.815Z,3.40
2019-03-16T21:51:49.948Z,3.20
2019-03-16T21:54:37.675Z,3.03
2019-03-16T22:00:37.474Z,3.10
2019-03-16T22:03:24.507Z,3.33
2019-03-16T22:06:18.616Z,3.03
2019-03-16T22:09:06.548Z,3.27
2019-03-16T22:11:53.752Z,3.20
2019-03-16T22:20:53.754Z,3.00
2019-03-16T22:42:32.593Z,2.23
2019-03-16T22:51:32.755Z,2.20
2019-03-16T22:54:20.920Z,2.43
2019-03-16T22:57:08.746Z,1.93
2019-03-16T23:15:27.211Z,1.83
2019-03-16T23:18:13.947Z,1.80
2019-03-16T23:21:00.756Z,2.10
2019-03-16T23:29:59.973Z,1.57
2019-03-16T23:32:47.089Z,1.67
2019-03-16T23:35:40.780Z,2.00
2019-03-16T23:44:42.012Z,1.50
